Paynesville, Missouri
Current Conditions -  °F | °C
As of 4:55 PM on Monday 24 Nov 2014 (Local Time) from KPPQ Reporting Station
Overcast Overcast  
Wind Chill: 28°   Ceiling: 3200
Heat Index: 36°   Visibility: 10mi
Dew Point: 28°   Wind: 12mph
Humidity: 72%   Direction: 270°W
Pressure: 29.83"   Gusts: 22mph
Location:  39.3277°N, 90.9481°W
Report Text: KPPQ 242255Z AUTO 27010G19KT 10SM OVC032 02/M02 A2983 RMK AO2 T00211025
Loading
Personal Weather Stations






























Interactive Weather Map New forecast layout! Learn more

10-Day Weather Forecast

Advertisements
Track Severe Weather on mobile